createdAt,value
2022-11-29T00:01:05.783Z,99503.78
2022-11-29T00:03:34.195Z,99503.72
2022-11-29T00:06:05.857Z,99504.31
2022-11-29T00:08:33.495Z,99498.00
2022-11-29T00:11:06.967Z,99509.50
2022-11-29T00:13:34.875Z,99497.47
2022-11-29T00:16:04.623Z,99503.63
2022-11-29T00:18:32.506Z,99496.34
2022-11-29T00:21:00.219Z,99489.31
2022-11-29T00:23:28.104Z,99496.25
2022-11-29T00:25:55.748Z,99497.56
2022-11-29T00:28:24.857Z,99502.00
2022-11-29T00:30:52.476Z,99501.66
2022-11-29T00:33:20.089Z,99502.38
2022-11-29T00:35:47.730Z,99496.31
2022-11-29T00:38:15.367Z,99507.53
2022-11-29T00:40:43.101Z,99498.25
2022-11-29T00:43:10.750Z,99502.69
2022-11-29T00:45:39.700Z,99501.44
2022-11-29T00:48:07.618Z,99512.25
2022-11-29T00:50:35.250Z,99509.69
2022-11-29T00:53:02.876Z,99503.41
2022-11-29T00:55:30.480Z,99507.03
2022-11-29T00:57:58.169Z,99511.34
2022-11-29T01:00:25.949Z,99506.19
2022-11-29T01:02:54.939Z,99510.13
2022-11-29T01:05:22.584Z,99507.81
2022-11-29T01:07:50.253Z,99508.59
2022-11-29T01:10:18.035Z,99507.63
2022-11-29T01:12:45.705Z,99522.13
2022-11-29T01:15:14.150Z,99517.13
2022-11-29T01:17:42.440Z,99514.84
2022-11-29T01:20:14.177Z,99520.06
2022-11-29T01:22:42.137Z,99518.16
2022-11-29T01:25:12.801Z,99524.13
2022-11-29T01:27:40.937Z,99525.44
2022-11-29T01:30:11.507Z,99529.28
2022-11-29T01:32:39.803Z,99526.38
2022-11-29T01:35:08.383Z,99528.72
2022-11-29T01:37:38.692Z,99537.25
2022-11-29T01:40:07.983Z,99528.75
2022-11-29T01:42:35.852Z,99534.94
2022-11-29T01:45:15.058Z,99535.00
2022-11-29T01:47:47.028Z,99539.06
2022-11-29T01:50:15.165Z,99529.41
2022-11-29T01:52:45.056Z,99533.97
2022-11-29T01:55:13.199Z,99537.19
2022-11-29T01:57:42.741Z,99532.72
2022-11-29T02:00:13.244Z,99530.16
2022-11-29T02:02:43.486Z,99531.44
2022-11-29T02:05:13.816Z,99533.19
2022-11-29T02:07:45.823Z,99530.50
2022-11-29T02:10:14.424Z,99538.59
2022-11-29T02:12:58.084Z,99529.53
2022-11-29T02:15:39.956Z,99535.31
2022-11-29T02:18:11.449Z,99532.56
2022-11-29T02:21:11.721Z,99533.16
2022-11-29T02:24:21.861Z,99535.16
2022-11-29T02:27:17.749Z,99535.88
2022-11-29T02:30:15.756Z,99532.06
2022-11-29T02:33:25.095Z,99530.53
2022-11-29T02:36:17.280Z,99534.09
2022-11-29T02:39:21.115Z,99532.06
2022-11-29T02:42:10.864Z,99527.63
2022-11-29T02:44:55.170Z,99534.22
2022-11-29T02:47:33.707Z,99538.09
2022-11-29T02:50:20.675Z,99537.22
2022-11-29T02:53:01.213Z,99533.94
2022-11-29T02:55:35.356Z,99536.19
2022-11-29T02:58:10.521Z,99542.25
2022-11-29T03:00:48.169Z,99540.84
2022-11-29T03:03:22.476Z,99539.81
2022-11-29T03:05:58.289Z,99544.66
2022-11-29T03:08:36.035Z,99547.25
2022-11-29T03:11:14.497Z,99552.88
2022-11-29T03:13:52.161Z,99555.03
2022-11-29T03:16:43.274Z,99551.84
2022-11-29T03:19:30.196Z,99551.69
2022-11-29T03:22:10.055Z,99555.03
2022-11-29T03:24:43.729Z,99560.97
2022-11-29T03:27:17.816Z,99560.97
2022-11-29T03:29:51.875Z,99565.69
2022-11-29T03:32:28.988Z,99563.75
2022-11-29T03:35:05.116Z,99562.78
2022-11-29T03:37:42.728Z,99565.88
2022-11-29T03:40:13.656Z,99572.00
2022-11-29T03:42:46.709Z,99567.25
2022-11-29T03:45:20.565Z,99570.78
2022-11-29T03:47:55.612Z,99568.19
2022-11-29T03:50:27.534Z,99570.69
2022-11-29T03:53:03.208Z,99572.00
2022-11-29T03:55:47.469Z,99573.47
2022-11-29T03:58:29.808Z,99566.50
2022-11-29T04:01:30.670Z,99568.34
2022-11-29T04:04:21.466Z,99574.78
2022-11-29T04:07:04.908Z,99576.53
2022-11-29T04:09:51.760Z,99570.47
2022-11-29T04:12:51.960Z,99573.38
2022-11-29T04:15:49.835Z,99579.63
2022-11-29T04:18:46.813Z,99578.44
2022-11-29T04:21:49.184Z,99578.53
2022-11-29T04:24:54.354Z,99574.22
2022-11-29T04:27:41.472Z,99590.16
2022-11-29T04:30:18.302Z,99587.31
2022-11-29T04:33:31.784Z,99594.88
2022-11-29T04:36:26.833Z,99598.06
2022-11-29T04:39:15.765Z,99600.41
2022-11-29T04:42:18.602Z,99597.31
2022-11-29T04:45:17.238Z,99601.53
2022-11-29T04:47:58.200Z,99595.69
2022-11-29T04:50:40.024Z,99605.41
2022-11-29T04:53:30.675Z,99609.56
2022-11-29T04:56:07.536Z,99607.78
2022-11-29T04:58:41.665Z,99617.34
2022-11-29T05:01:20.612Z,99610.56
2022-11-29T05:03:57.286Z,99624.28
2022-11-29T05:06:31.071Z,99620.06
2022-11-29T05:09:08.020Z,99627.31
2022-11-29T05:11:51.148Z,99620.75
2022-11-29T05:14:36.005Z,99630.78
2022-11-29T05:17:25.601Z,99629.22
2022-11-29T05:20:04.698Z,99639.50
2022-11-29T05:22:41.602Z,99642.47
2022-11-29T05:25:29.224Z,99645.97
2022-11-29T05:28:05.696Z,99637.69
2022-11-29T05:31:05.266Z,99644.13
2022-11-29T05:33:53.551Z,99648.72
2022-11-29T05:36:30.645Z,99648.56
2022-11-29T05:39:12.464Z,99654.03
2022-11-29T05:41:57.858Z,99658.84
2022-11-29T05:44:31.733Z,99654.72
2022-11-29T05:47:02.206Z,99652.97
2022-11-29T05:49:43.294Z,99661.63
2022-11-29T05:52:25.336Z,99664.41
2022-11-29T05:55:08.672Z,99664.69
2022-11-29T05:57:44.651Z,99671.50
2022-11-29T06:00:16.788Z,99670.28
2022-11-29T06:02:55.895Z,99671.56
2022-11-29T06:05:32.529Z,99677.50
2022-11-29T06:08:06.336Z,99682.22
2022-11-29T06:10:39.919Z,99683.97
2022-11-29T06:13:18.678Z,99679.69
2022-11-29T06:16:08.872Z,99692.69
2022-11-29T06:19:23.614Z,99687.44
2022-11-29T06:22:00.965Z,99697.00
2022-11-29T06:24:46.592Z,99698.44
2022-11-29T06:27:31.603Z,99703.03
2022-11-29T06:30:06.765Z,99699.63
2022-11-29T06:32:42.017Z,99702.66
2022-11-29T06:35:18.955Z,99698.88
2022-11-29T06:37:52.163Z,99710.53
2022-11-29T06:40:19.831Z,99696.25
2022-11-29T06:42:48.838Z,99708.56
2022-11-29T06:45:17.648Z,99702.78
2022-11-29T06:47:47.574Z,99712.88
2022-11-29T06:50:30.689Z,99704.84
2022-11-29T06:53:09.369Z,99709.78
2022-11-29T06:55:49.444Z,99717.09
2022-11-29T06:58:36.285Z,99721.84
2022-11-29T07:01:12.339Z,99718.88
2022-11-29T07:04:03.804Z,99725.19
2022-11-29T07:06:32.941Z,99724.38
2022-11-29T07:09:11.291Z,99731.00
2022-11-29T07:11:39.906Z,99734.84
2022-11-29T07:14:08.353Z,99728.91
2022-11-29T07:16:44.196Z,99737.63
2022-11-29T07:19:21.444Z,99739.06
2022-11-29T07:21:59.949Z,99741.00
2022-11-29T07:24:43.178Z,99742.28
2022-11-29T07:27:19.852Z,99741.06
2022-11-29T07:30:03.947Z,99744.78
2022-11-29T07:32:48.850Z,99743.78
2022-11-29T07:35:22.961Z,99745.56
2022-11-29T07:38:02.533Z,99742.13
2022-11-29T07:40:38.190Z,99746.72
2022-11-29T07:43:22.490Z,99752.66
2022-11-29T07:45:51.579Z,99753.03
2022-11-29T07:48:19.413Z,99753.88
2022-11-29T07:50:48.325Z,99753.72
2022-11-29T07:53:17.855Z,99751.16
2022-11-29T07:55:47.505Z,99755.75
2022-11-29T07:58:17.109Z,99757.72
2022-11-29T08:00:45.758Z,99755.91
2022-11-29T08:03:13.748Z,99760.28
2022-11-29T08:05:46.828Z,99760.41
2022-11-29T08:08:14.564Z,99764.94
2022-11-29T08:10:42.287Z,99762.53
2022-11-29T08:13:13.234Z,99765.31
2022-11-29T08:15:45.599Z,99770.53
2022-11-29T08:18:13.232Z,99769.31
2022-11-29T08:20:41.670Z,99774.66
2022-11-29T08:23:11.928Z,99772.56
2022-11-29T08:25:40.347Z,99778.44
2022-11-29T08:28:07.949Z,99780.00
2022-11-29T08:30:37.091Z,99782.50
2022-11-29T08:33:05.148Z,99786.09
2022-11-29T08:35:32.824Z,99784.22
2022-11-29T08:38:00.421Z,99790.31
2022-11-29T08:40:28.107Z,99788.84
2022-11-29T08:42:58.322Z,99792.34
2022-11-29T08:45:26.050Z,99796.03
2022-11-29T08:47:55.011Z,99795.22
2022-11-29T08:50:22.685Z,99798.91
2022-11-29T08:53:08.453Z,99800.69
2022-11-29T08:55:39.838Z,99809.81
2022-11-29T08:58:10.960Z,99806.75
2022-11-29T09:00:39.629Z,99811.19
2022-11-29T09:03:38.284Z,99812.81
2022-11-29T09:06:11.926Z,99810.38
2022-11-29T09:08:40.457Z,99818.47
2022-11-29T09:11:09.165Z,99809.56
2022-11-29T09:13:36.768Z,99816.88
2022-11-29T09:16:08.828Z,99819.81
2022-11-29T09:18:38.927Z,99821.16
2022-11-29T09:21:07.627Z,99821.69
2022-11-29T09:23:35.326Z,99822.53
2022-11-29T09:26:03.602Z,99822.75
2022-11-29T09:28:31.857Z,99828.53
2022-11-29T09:31:05.796Z,99820.69
2022-11-29T09:33:33.772Z,99835.00
2022-11-29T09:36:03.961Z,99837.59
2022-11-29T09:38:31.707Z,99839.22
2022-11-29T09:41:05.649Z,99841.09
2022-11-29T09:43:43.812Z,99851.13
2022-11-29T09:46:19.348Z,99842.03
2022-11-29T09:49:12.106Z,99845.28
2022-11-29T09:51:49.718Z,99842.97
2022-11-29T09:54:30.504Z,99842.53
2022-11-29T09:56:58.361Z,99850.81
2022-11-29T09:59:29.748Z,99844.84
2022-11-29T10:02:02.495Z,99846.84
2022-11-29T10:04:34.839Z,99850.53
2022-11-29T10:07:07.729Z,99853.72
2022-11-29T10:09:43.071Z,99851.28
2022-11-29T10:12:18.330Z,99848.94
2022-11-29T10:14:52.366Z,99858.66
2022-11-29T10:17:34.070Z,99848.84
2022-11-29T10:20:07.452Z,99859.41
2022-11-29T10:22:43.990Z,99856.66
2022-11-29T10:25:21.203Z,99851.47
2022-11-29T10:27:48.839Z,99860.16
2022-11-29T10:30:17.439Z,99852.56
2022-11-29T10:32:48.407Z,99857.09
2022-11-29T10:35:18.303Z,99853.44
2022-11-29T10:38:07.650Z,99848.03
2022-11-29T10:40:38.510Z,99849.84
2022-11-29T10:43:06.244Z,99848.28
2022-11-29T10:45:38.901Z,99848.66
2022-11-29T10:48:12.251Z,99846.19
2022-11-29T10:50:43.927Z,99851.69
2022-11-29T10:53:16.247Z,99848.03
2022-11-29T10:55:49.535Z,99848.72
2022-11-29T10:58:24.804Z,99849.38
2022-11-29T11:00:57.417Z,99846.88
2022-11-29T11:03:38.710Z,99852.66
2022-11-29T11:06:18.318Z,99849.06
2022-11-29T11:08:50.808Z,99853.63
2022-11-29T11:11:26.078Z,99848.94
2022-11-29T11:14:00.358Z,99847.88
2022-11-29T11:16:31.590Z,99848.28
2022-11-29T11:19:27.663Z,99842.13
2022-11-29T11:21:55.628Z,99848.72
2022-11-29T11:24:28.103Z,99840.13
2022-11-29T11:26:56.154Z,99842.56
2022-11-29T11:29:26.579Z,99849.75
2022-11-29T11:31:57.162Z,99849.38
2022-11-29T11:34:34.117Z,99855.16
2022-11-29T11:37:26.809Z,99856.66
2022-11-29T11:39:57.956Z,99859.47
2022-11-29T11:42:38.648Z,99858.31
2022-11-29T11:45:23.978Z,99855.47
2022-11-29T11:47:53.866Z,99862.94
2022-11-29T11:50:29.573Z,99859.91
2022-11-29T11:52:59.085Z,99867.00
2022-11-29T11:55:33.766Z,99862.25
2022-11-29T11:58:09.944Z,99867.56
2022-11-29T12:03:50.607Z,99876.84
2022-11-29T12:06:28.257Z,99870.91
2022-11-29T12:09:02.050Z,99869.50
2022-11-29T12:11:35.011Z,99866.72
2022-11-29T12:14:06.184Z,99869.91
2022-11-29T12:16:37.776Z,99867.25
2022-11-29T12:19:13.181Z,99868.16
2022-11-29T12:21:44.688Z,99870.06
2022-11-29T12:24:22.442Z,99867.16
2022-11-29T12:26:57.553Z,99878.06
2022-11-29T12:29:28.778Z,99876.19
2022-11-29T12:32:12.720Z,99876.72
2022-11-29T12:34:51.660Z,99871.41
2022-11-29T12:37:26.206Z,99869.41
2022-11-29T12:40:06.877Z,99871.41
2022-11-29T12:42:51.089Z,99876.84
2022-11-29T12:45:35.517Z,99882.72
2022-11-29T12:48:13.590Z,99876.50
2022-11-29T12:50:51.692Z,99879.63
2022-11-29T12:53:32.843Z,99879.78
2022-11-29T12:56:10.945Z,99876.03
2022-11-29T12:58:47.959Z,99875.00
2022-11-29T13:01:26.161Z,99873.53
2022-11-29T13:04:08.299Z,99878.81
2022-11-29T13:06:45.418Z,99886.44
2022-11-29T13:09:42.872Z,99892.50
2022-11-29T13:12:15.953Z,99896.88
2022-11-29T13:14:53.405Z,99892.50
2022-11-29T13:17:30.537Z,99890.56
2022-11-29T13:20:03.293Z,99901.72
2022-11-29T13:22:41.437Z,99900.22
2022-11-29T13:25:18.879Z,99900.91
2022-11-29T13:27:54.046Z,99907.03
2022-11-29T13:30:23.488Z,99898.09
2022-11-29T13:32:57.992Z,99905.00
2022-11-29T13:35:31.295Z,99901.78
2022-11-29T13:38:04.428Z,99901.00
2022-11-29T13:40:38.265Z,99904.84
2022-11-29T13:43:16.765Z,99902.94
2022-11-29T13:45:52.171Z,99904.47
2022-11-29T13:48:47.859Z,99901.69
2022-11-29T13:51:30.931Z,99899.91
2022-11-29T13:54:01.432Z,99907.31
2022-11-29T13:56:36.024Z,99904.84
2022-11-29T13:59:09.085Z,99910.75
2022-11-29T14:01:50.992Z,99913.53
2022-11-29T14:04:27.734Z,99911.19
2022-11-29T14:07:07.529Z,99924.50
2022-11-29T14:09:43.134Z,99923.34
2022-11-29T14:12:36.942Z,99924.19
2022-11-29T14:15:17.477Z,99923.47
2022-11-29T14:17:57.218Z,99927.53
2022-11-29T14:20:58.409Z,99938.03
2022-11-29T14:23:41.585Z,99936.41
2022-11-29T14:26:28.880Z,99933.63
2022-11-29T14:28:57.129Z,99936.97
2022-11-29T14:31:54.329Z,99938.72
2022-11-29T14:34:37.148Z,99936.53
2022-11-29T14:37:26.967Z,99937.94
2022-11-29T14:39:58.529Z,99941.88
2022-11-29T14:42:27.677Z,99945.31
2022-11-29T14:44:58.363Z,99949.81
2022-11-29T14:47:29.847Z,99946.38
2022-11-29T14:50:01.098Z,99949.84
2022-11-29T14:52:32.045Z,99950.94
2022-11-29T14:55:03.960Z,99948.44
2022-11-29T14:58:06.160Z,99947.47
2022-11-29T15:00:55.196Z,99951.34
2022-11-29T15:03:31.727Z,99952.44
2022-11-29T15:06:08.568Z,99955.91
2022-11-29T15:08:41.455Z,99955.38
2022-11-29T15:11:15.735Z,99957.63
2022-11-29T15:13:55.307Z,99962.34
2022-11-29T15:16:37.430Z,99961.84
2022-11-29T15:19:46.917Z,99971.09
2022-11-29T15:22:19.535Z,99963.31
2022-11-29T15:24:52.933Z,99969.56
2022-11-29T15:27:20.730Z,99968.59
2022-11-29T15:29:48.719Z,99972.75
2022-11-29T15:32:26.120Z,99970.72
2022-11-29T15:34:56.040Z,99971.91
2022-11-29T15:37:40.071Z,99976.41
2022-11-29T15:40:13.256Z,99970.69
2022-11-29T15:42:44.128Z,99975.69
2022-11-29T15:45:32.856Z,99982.63
2022-11-29T15:48:28.501Z,99987.69
2022-11-29T15:51:04.155Z,99987.28
2022-11-29T15:53:38.001Z,99989.16
2022-11-29T15:56:13.136Z,99986.38
2022-11-29T15:58:41.384Z,99995.00
2022-11-29T16:01:11.095Z,99995.47
2022-11-29T16:03:42.011Z,99997.97
2022-11-29T16:06:25.288Z,99992.50
2022-11-29T16:08:55.322Z,99991.94
2022-11-29T16:11:27.620Z,99997.53
2022-11-29T16:14:22.407Z,99992.97
2022-11-29T16:16:53.366Z,99999.16
2022-11-29T16:19:26.247Z,99994.16
2022-11-29T16:22:02.731Z,100000.38
2022-11-29T16:24:34.899Z,100000.00
2022-11-29T16:27:03.225Z,100001.78
2022-11-29T16:29:35.460Z,100003.03
2022-11-29T16:32:14.515Z,99997.75
2022-11-29T16:34:44.558Z,100006.66
2022-11-29T16:37:19.143Z,100012.53
2022-11-29T16:39:50.347Z,100013.94
2022-11-29T16:42:24.953Z,100010.13
2022-11-29T16:45:32.509Z,100018.94
2022-11-29T16:48:01.364Z,100027.53
2022-11-29T16:50:29.900Z,100020.19
2022-11-29T16:53:17.759Z,100019.19
2022-11-29T16:55:46.698Z,100024.94
2022-11-29T16:58:14.399Z,100020.97
2022-11-29T17:00:42.472Z,100020.28
2022-11-29T17:03:10.377Z,100012.47
2022-11-29T17:05:44.407Z,100017.91
2022-11-29T17:08:12.720Z,100016.72
2022-11-29T17:10:40.429Z,100019.09
2022-11-29T17:13:11.872Z,100021.72
2022-11-29T17:15:39.519Z,100025.31
2022-11-29T17:18:07.159Z,100027.06
2022-11-29T17:20:34.884Z,100027.78
2022-11-29T17:23:03.550Z,100020.97
2022-11-29T17:25:31.191Z,100029.44
2022-11-29T17:27:59.063Z,100026.34
2022-11-29T17:30:30.006Z,100031.72
2022-11-29T17:32:57.627Z,100029.47
2022-11-29T17:35:25.275Z,100029.25
2022-11-29T17:37:52.861Z,100033.09
2022-11-29T17:40:21.149Z,100036.06
2022-11-29T17:42:48.744Z,100038.31
2022-11-29T17:45:20.848Z,100037.97
2022-11-29T17:47:51.481Z,100043.13
2022-11-29T17:50:19.255Z,100044.66
2022-11-29T17:52:46.967Z,100044.03
2022-11-29T17:55:18.073Z,100046.03
2022-11-29T17:57:48.180Z,100047.44
2022-11-29T18:00:16.866Z,100051.63
2022-11-29T18:02:44.515Z,100056.47
2022-11-29T18:05:13.683Z,100060.59
2022-11-29T18:07:57.748Z,100052.38
2022-11-29T18:10:25.823Z,100062.00
2022-11-29T18:12:53.558Z,100058.88
2022-11-29T18:15:21.463Z,100058.63
2022-11-29T18:17:49.029Z,100061.13
2022-11-29T18:20:17.996Z,100066.91
2022-11-29T18:22:45.593Z,100071.81
2022-11-29T18:25:37.681Z,100059.34
2022-11-29T18:28:01.051Z,100073.78
2022-11-29T18:30:29.319Z,100073.47
2022-11-29T18:32:58.030Z,100070.31
2022-11-29T18:35:52.554Z,100072.31
2022-11-29T18:38:20.445Z,100073.72
2022-11-29T18:40:48.148Z,100083.94
2022-11-29T18:43:17.587Z,100076.41
2022-11-29T18:45:45.193Z,100083.53
2022-11-29T18:48:12.839Z,100087.94
2022-11-29T18:50:40.450Z,100087.72
2022-11-29T18:53:09.474Z,100083.34
2022-11-29T18:55:37.114Z,100080.13
2022-11-29T18:58:06.480Z,100085.41
2022-11-29T19:00:34.134Z,100079.88
2022-11-29T19:03:01.762Z,100092.72
2022-11-29T19:05:29.584Z,100086.47
2022-11-29T19:07:57.400Z,100087.88
2022-11-29T19:10:26.575Z,100095.34
2022-11-29T19:12:55.699Z,100098.00
2022-11-29T19:15:23.372Z,100096.09
2022-11-29T19:17:51.138Z,100095.47
2022-11-29T19:20:19.040Z,100092.09
2022-11-29T19:22:47.776Z,100089.84
2022-11-29T19:25:15.717Z,100099.28
2022-11-29T19:27:47.551Z,100098.28
2022-11-29T19:30:17.391Z,100102.78
2022-11-29T19:32:45.131Z,100112.22
2022-11-29T19:35:12.909Z,100107.47
2022-11-29T19:37:41.885Z,100108.81
2022-11-29T19:40:10.073Z,100107.03
2022-11-29T19:42:37.839Z,100106.13
2022-11-29T19:45:23.191Z,100110.16
2022-11-29T19:47:50.975Z,100111.22
2022-11-29T19:50:18.892Z,100107.09
2022-11-29T19:52:46.719Z,100112.13
2022-11-29T19:55:14.490Z,100111.47
2022-11-29T19:57:42.525Z,100109.91
2022-11-29T20:00:13.128Z,100107.84
2022-11-29T20:02:40.892Z,100107.19
2022-11-29T20:05:09.470Z,100105.84
2022-11-29T20:07:37.200Z,100114.25
2022-11-29T20:10:07.472Z,100111.63
2022-11-29T20:12:35.534Z,100117.66
2022-11-29T20:15:03.312Z,100109.63
2022-11-29T20:17:32.631Z,100108.22
2022-11-29T20:20:00.460Z,100116.72
2022-11-29T20:22:28.306Z,100115.81
2022-11-29T20:24:56.110Z,100123.72
2022-11-29T20:27:24.429Z,100123.31
2022-11-29T20:29:52.471Z,100123.03
2022-11-29T20:32:20.496Z,100119.97
2022-11-29T20:34:50.364Z,100126.66
2022-11-29T20:37:37.490Z,100133.44
2022-11-29T20:40:10.942Z,100131.94
2022-11-29T20:42:51.779Z,100134.00
2022-11-29T20:45:20.089Z,100136.44
2022-11-29T20:47:54.881Z,100133.25
2022-11-29T20:50:27.001Z,100136.91
2022-11-29T20:53:10.454Z,100136.19
2022-11-29T20:55:43.660Z,100142.16
2022-11-29T20:58:15.450Z,100135.22
2022-11-29T21:00:43.275Z,100143.75
2022-11-29T21:03:13.989Z,100142.22
2022-11-29T21:05:43.734Z,100144.00
2022-11-29T21:08:11.498Z,100142.88
2022-11-29T21:10:39.293Z,100142.03
2022-11-29T21:13:07.854Z,100145.50
2022-11-29T21:15:36.539Z,100137.94
2022-11-29T21:18:04.669Z,100151.09
2022-11-29T21:20:32.837Z,100140.19
2022-11-29T21:23:06.097Z,100144.59
2022-11-29T21:25:43.410Z,100145.16
2022-11-29T21:28:14.108Z,100146.13
2022-11-29T21:30:43.160Z,100143.66
2022-11-29T21:33:12.354Z,100150.16
2022-11-29T21:35:40.863Z,100156.53
2022-11-29T21:38:14.335Z,100149.75
2022-11-29T21:40:42.098Z,100163.31
2022-11-29T21:43:09.840Z,100150.97
2022-11-29T21:45:37.655Z,100159.03
2022-11-29T21:48:25.825Z,100156.81
2022-11-29T21:50:53.667Z,100161.13
2022-11-29T21:53:22.840Z,100152.53
2022-11-29T21:55:56.910Z,100150.19
2022-11-29T21:58:24.990Z,100154.47
2022-11-29T22:00:53.017Z,100149.06
2022-11-29T22:03:21.280Z,100165.28
2022-11-29T22:05:49.042Z,100164.59
2022-11-29T22:08:17.784Z,100168.19
2022-11-29T22:10:47.107Z,100161.81
2022-11-29T22:13:14.880Z,100158.91
2022-11-29T22:15:42.602Z,100155.97
2022-11-29T22:18:11.331Z,100160.03
2022-11-29T22:20:38.932Z,100158.50
2022-11-29T22:23:07.832Z,100153.22
2022-11-29T22:25:35.448Z,100156.44
2022-11-29T22:28:04.489Z,100163.59
2022-11-29T22:30:32.609Z,100166.13
2022-11-29T22:33:00.247Z,100165.00
2022-11-29T22:35:27.897Z,100160.00
2022-11-29T22:37:55.564Z,100160.44
2022-11-29T22:40:23.175Z,100161.53
2022-11-29T22:42:50.796Z,100159.31
2022-11-29T22:45:19.796Z,100151.28
2022-11-29T22:47:47.443Z,100150.19
2022-11-29T22:50:15.203Z,100145.75
2022-11-29T22:52:42.803Z,100147.13
2022-11-29T22:55:10.739Z,100157.50
2022-11-29T22:57:38.339Z,100163.88
2022-11-29T23:00:07.372Z,100161.63
2022-11-29T23:02:36.427Z,100163.69
2022-11-29T23:05:04.073Z,100171.19
2022-11-29T23:07:31.797Z,100166.06
2022-11-29T23:09:59.475Z,100164.94
2022-11-29T23:12:27.103Z,100166.78
2022-11-29T23:14:56.831Z,100159.44
2022-11-29T23:17:24.819Z,100162.78
2022-11-29T23:19:53.824Z,100169.44
2022-11-29T23:22:21.451Z,100160.56
2022-11-29T23:24:49.212Z,100175.00
2022-11-29T23:27:16.865Z,100174.72
2022-11-29T23:29:44.518Z,100173.59
2022-11-29T23:32:12.120Z,100178.72
2022-11-29T23:34:39.734Z,100169.31
2022-11-29T23:37:08.739Z,100172.50
2022-11-29T23:39:36.357Z,100178.88
2022-11-29T23:42:04.138Z,100176.50
2022-11-29T23:44:31.763Z,100181.94
2022-11-29T23:46:59.408Z,100174.00
2022-11-29T23:49:27.151Z,100170.56
2022-11-29T23:51:54.794Z,100169.97
2022-11-29T23:54:24.067Z,100164.59
2022-11-29T23:56:51.671Z,100170.81
2022-11-29T23:59:19.434Z,100167.22
